Time;durP1;ratioP1;P1;durP2;ratioP2;P2;SDS_P1;SDS_P2;PMS_P1;PMS_P2;Temp;Humidity;BMP_temperature;BMP_pressure;BME280_temperature;BME280_humidity;BME280_pressure;Samples;Min_cycle;Max_cycle;Signal;HPM_P1;HPM_P2
2023/07/07 00:00:00;;;;;;;12.07;7.20;;;;;;;20.38;68.05;95000.00;5143022;27;20405;-81
2023/07/07 00:02:25;;;;;;;11.27;6.88;;;;;;;20.34;68.50;95002.25;5144735;27;20506;-81
2023/07/07 00:04:51;;;;;;;12.10;6.47;;;;;;;20.37;68.60;95001.25;5143792;27;20027;-82
2023/07/07 00:07:17;;;;;;;12.27;7.18;;;;;;;20.36;68.76;95008.13;5144624;27;20031;-81
2023/07/07 00:09:43;;;;;;;9.50;7.53;;;;;;;20.32;68.79;95011.13;5142989;27;20022;-82
2023/07/07 00:12:08;;;;;;;12.15;7.15;;;;;;;20.33;68.40;94998.69;5144667;27;20033;-81
2023/07/07 00:14:34;;;;;;;10.40;7.57;;;;;;;20.33;68.20;95009.84;5122751;28;20122;-82
2023/07/07 00:17:03;;;;;;;12.68;7.05;;;;;;;20.28;68.57;95005.00;5109947;28;20024;-81
2023/07/07 00:19:33;;;;;;;16.58;6.85;;;;;;;20.28;68.66;94991.06;5111755;28;20595;-81
2023/07/07 00:22:02;;;;;;;7.78;7.07;;;;;;;20.28;68.35;94996.63;5125303;27;20104;-81
2023/07/07 00:24:28;;;;;;;11.90;6.88;;;;;;;20.28;68.42;94993.84;5127169;27;20062;-81
2023/07/07 00:26:53;;;;;;;9.70;6.68;;;;;;;20.27;68.72;95000.69;5125575;27;20055;-81
2023/07/07 00:29:18;;;;;;;8.75;6.35;;;;;;;20.26;68.17;95001.19;5126939;27;20491;-81
2023/07/07 00:31:44;;;;;;;7.85;6.38;;;;;;;20.21;68.40;95005.47;5109816;28;20031;-82
2023/07/07 00:34:09;;;;;;;9.63;6.75;;;;;;;20.20;68.64;95003.97;5126469;27;20031;-81
2023/07/07 00:36:35;;;;;;;7.57;6.40;;;;;;;20.20;68.94;94998.38;5109497;28;20111;-82
2023/07/07 00:39:00;;;;;;;9.48;7.30;;;;;;;20.18;68.87;95003.66;5109542;28;20016;-82
2023/07/07 00:41:28;;;;;;;12.93;7.93;;;;;;;20.15;68.91;95002.66;5111699;28;20122;-82
2023/07/07 00:44:19;;;;;;;8.43;7.32;;;;;;;20.17;69.04;95004.94;5127011;27;20039;-81
2023/07/07 00:46:45;;;;;;;10.90;7.75;;;;;;;20.13;69.03;95010.00;5110306;28;20117;-81
2023/07/07 00:49:14;;;;;;;10.70;7.90;;;;;;;20.11;68.93;95001.34;5125714;27;20439;-81
2023/07/07 00:51:48;;;;;;;12.02;8.07;;;;;;;20.11;69.17;95013.28;5125624;27;20520;-81
2023/07/07 00:54:19;;;;;;;13.48;8.35;;;;;;;20.08;69.60;95007.94;5110870;28;20049;-82
2023/07/07 00:56:49;;;;;;;12.10;8.55;;;;;;;20.03;69.61;95009.44;5107498;28;20031;-81
2023/07/07 00:59:20;;;;;;;12.25;7.57;;;;;;;20.06;69.46;95018.81;5109368;28;20048;-82
2023/07/07 01:01:46;;;;;;;12.55;8.10;;;;;;;20.07;69.31;95023.13;5111128;28;20088;-81
2023/07/07 01:04:14;;;;;;;16.00;9.45;;;;;;;20.06;69.60;95022.38;5129770;27;20032;-82
2023/07/07 01:06:43;;;;;;;14.05;9.18;;;;;;;20.06;69.90;95019.59;5130808;27;20019;-81
2023/07/07 01:09:08;;;;;;;16.40;8.98;;;;;;;20.04;69.78;95019.31;5111069;28;20024;-81
2023/07/07 01:11:35;;;;;;;17.15;8.82;;;;;;;20.03;69.79;95020.59;5111218;28;20027;-81
2023/07/07 01:14:03;;;;;;;15.10;9.30;;;;;;;20.01;70.07;95016.75;5108609;28;20126;-81
2023/07/07 01:16:53;;;;;;;12.65;10.07;;;;;;;20.02;70.07;95015.50;5126523;27;20524;-81
2023/07/07 01:19:36;;;;;;;17.85;10.00;;;;;;;20.01;69.90;95019.53;5109513;28;20128;-81
2023/07/07 01:22:20;;;;;;;13.15;9.77;;;;;;;20.00;70.03;95018.78;5124816;27;20047;-82
2023/07/07 01:25:06;;;;;;;16.83;9.63;;;;;;;19.99;69.97;95013.72;5110148;28;20114;-81
2023/07/07 01:27:42;;;;;;;12.75;9.50;;;;;;;19.99;70.00;95010.91;5107499;28;20079;-80
2023/07/07 01:30:31;;;;;;;11.48;9.10;;;;;;;19.96;69.87;95014.72;5125196;27;20027;-82
2023/07/07 01:32:57;;;;;;;11.75;9.88;;;;;;;19.94;69.99;95017.22;5125435;27;20062;-82
2023/07/07 01:35:23;;;;;;;12.85;10.07;;;;;;;19.97;69.80;95013.44;5124280;27;20032;-81
2023/07/07 01:37:56;;;;;;;14.05;8.82;;;;;;;19.94;70.10;95020.78;5125803;27;20793;-82
2023/07/07 01:40:28;;;;;;;13.50;9.00;;;;;;;19.88;70.15;95017.94;5090303;28;20020;-82
2023/07/07 01:42:59;;;;;;;11.35;8.80;;;;;;;19.91;70.45;95019.00;5125561;27;20481;-82
2023/07/07 01:45:46;;;;;;;11.10;8.95;;;;;;;19.91;70.03;95013.41;5109787;28;20027;-82
2023/07/07 01:48:30;;;;;;;11.52;8.07;;;;;;;19.87;70.18;95018.44;5108219;28;20019;-82
2023/07/07 01:50:55;;;;;;;10.00;7.70;;;;;;;19.89;70.39;95015.91;5125611;27;20027;-82
2023/07/07 01:53:24;;;;;;;10.50;7.78;;;;;;;19.85;70.28;95013.38;5107026;28;20077;-82
2023/07/07 01:55:55;;;;;;;10.35;7.35;;;;;;;19.86;69.88;95012.09;5125761;27;20020;-82
2023/07/07 01:58:21;;;;;;;12.45;7.82;;;;;;;19.86;70.05;95014.13;5108928;28;20023;-81
2023/07/07 02:00:49;;;;;;;11.90;8.13;;;;;;;19.85;69.86;95007.78;5125022;27;20027;-81
2023/07/07 02:03:15;;;;;;;10.02;7.80;;;;;;;19.87;70.28;95007.28;5125229;27;20024;-81
2023/07/07 02:05:41;;;;;;;11.50;9.23;;;;;;;19.83;70.44;95009.53;5106785;28;20054;-81
2023/07/07 02:08:06;;;;;;;10.13;8.82;;;;;;;19.84;70.17;95009.06;5125682;27;20107;-81
2023/07/07 02:10:32;;;;;;;13.48;9.73;;;;;;;19.86;69.98;95002.97;5107934;28;20429;-82
2023/07/07 02:12:57;;;;;;;13.30;9.50;;;;;;;19.90;70.11;95009.09;5125418;27;20065;-84
2023/07/07 02:15:23;;;;;;;10.32;8.90;;;;;;;19.91;70.12;95007.84;5106188;28;20039;-82
2023/07/07 02:17:48;;;;;;;13.93;10.07;;;;;;;19.90;70.44;95006.31;5108173;28;20023;-82
2023/07/07 02:20:14;;;;;;;11.52;10.10;;;;;;;19.91;70.44;95001.50;5108615;28;20015;-82
2023/07/07 02:22:39;;;;;;;12.82;10.18;;;;;;;19.93;70.38;95001.75;5124389;27;20080;-82
2023/07/07 02:25:06;;;;;;;11.52;9.55;;;;;;;19.97;70.59;95013.44;5108473;28;20115;-82
2023/07/07 02:27:31;;;;;;;11.27;10.10;;;;;;;20.00;70.55;95012.44;5106379;28;20038;-81
2023/07/07 02:29:57;;;;;;;11.80;10.60;;;;;;;20.02;70.31;95010.69;5108591;28;20024;-82
2023/07/07 02:32:22;;;;;;;13.25;11.20;;;;;;;20.04;70.44;95016.53;5107219;28;20489;-81
2023/07/07 02:34:47;;;;;;;12.45;11.13;;;;;;;19.98;70.71;95012.94;5124124;27;20055;-81
2023/07/07 02:37:17;;;;;;;12.38;10.68;;;;;;;20.01;70.55;95005.59;5107377;28;20023;-82
2023/07/07 02:39:43;;;;;;;13.00;11.50;;;;;;;20.07;70.23;95017.56;5108802;28;20027;-81
2023/07/07 02:42:09;;;;;;;13.23;11.32;;;;;;;20.04;70.46;95013.75;5107880;28;20035;-81
2023/07/07 02:44:34;;;;;;;12.85;11.32;;;;;;;20.04;70.47;95010.19;5107837;28;20020;-81
2023/07/07 02:47:00;;;;;;;13.27;11.68;;;;;;;20.05;70.25;95008.94;5124787;27;20038;-81
2023/07/07 02:49:25;;;;;;;13.98;11.27;;;;;;;20.07;70.24;95009.97;5106370;28;20225;-81
2023/07/07 02:51:51;;;;;;;14.82;12.10;;;;;;;20.07;70.02;95014.75;5110252;28;20077;-79
2023/07/07 02:54:16;;;;;;;14.13;12.63;;;;;;;20.08;70.14;95011.50;5108108;28;20080;-82
2023/07/07 02:56:41;;;;;;;13.82;12.00;;;;;;;20.09;70.01;95020.63;5108477;28;20496;-83
2023/07/07 02:59:07;;;;;;;13.02;11.63;;;;;;;20.11;69.61;95023.69;5105730;28;20043;-82
2023/07/07 03:01:32;;;;;;;14.43;12.85;;;;;;;20.12;69.41;95025.19;5108270;28;20028;-82
2023/07/07 03:03:58;;;;;;;14.55;12.88;;;;;;;20.11;69.79;95020.88;5107804;28;20023;-82
2023/07/07 03:06:24;;;;;;;14.65;13.10;;;;;;;20.14;69.59;95019.91;5106402;28;20397;-81
2023/07/07 03:08:50;;;;;;;15.55;12.75;;;;;;;20.17;69.63;95030.06;5108517;28;20026;-82
2023/07/07 03:11:19;;;;;;;17.95;13.60;;;;;;;20.19;69.35;95029.59;5105938;28;20032;-82
2023/07/07 03:13:46;;;;;;;14.70;12.93;;;;;;;20.22;69.22;95034.16;5124050;28;20024;-81
2023/07/07 03:16:20;;;;;;;15.30;13.20;;;;;;;20.24;68.77;95028.81;5105364;28;20023;-82
2023/07/07 03:18:50;;;;;;;17.00;13.85;;;;;;;20.25;68.63;95031.13;5107175;28;20036;-82
2023/07/07 03:21:17;;;;;;;14.80;13.07;;;;;;;20.27;68.73;95023.03;5123843;28;20035;-81
2023/07/07 03:23:43;;;;;;;15.93;14.23;;;;;;;20.28;68.87;95030.13;5106200;28;20019;-81
2023/07/07 03:26:11;;;;;;;14.48;12.73;;;;;;;20.31;68.86;95025.59;5108668;28;20032;-82
2023/07/07 03:28:36;;;;;;;14.70;13.20;;;;;;;20.39;68.45;95021.06;5123117;28;20024;-81
2023/07/07 03:31:10;;;;;;;16.10;13.93;;;;;;;20.45;68.46;95027.44;5106706;28;20403;-80
2023/07/07 03:33:35;;;;;;;15.02;13.50;;;;;;;20.43;68.00;95018.81;5123108;28;20032;-81
2023/07/07 03:36:01;;;;;;;16.80;14.38;;;;;;;20.46;68.22;95025.44;5106662;28;20337;-81
2023/07/07 03:38:26;;;;;;;15.98;14.38;;;;;;;20.45;68.13;95029.47;5123089;28;20016;-82
2023/07/07 03:40:52;;;;;;;18.55;15.70;;;;;;;20.44;68.32;95025.91;5107590;28;20028;-82
2023/07/07 03:43:18;;;;;;;16.33;14.57;;;;;;;20.46;68.31;95026.19;5109427;28;20110;-82
2023/07/07 03:45:43;;;;;;;18.50;15.63;;;;;;;20.50;68.01;95023.19;5122571;28;20020;-82
2023/07/07 03:48:09;;;;;;;18.08;14.73;;;;;;;20.50;67.82;95025.97;5106742;28;20063;-82
2023/07/07 03:50:35;;;;;;;17.65;15.55;;;;;;;20.45;67.79;95018.28;5124037;27;20519;-82
2023/07/07 03:53:00;;;;;;;19.10;17.10;;;;;;;20.49;68.00;95030.78;5112068;28;20477;-82
2023/07/07 03:55:26;;;;;;;21.02;16.45;;;;;;;20.51;68.07;95030.28;5110434;28;20114;-82
2023/07/07 03:57:51;;;;;;;18.20;16.27;;;;;;;20.52;67.95;95029.78;5112480;28;20034;-82
2023/07/07 04:00:16;;;;;;;19.88;16.80;;;;;;;20.52;67.89;95029.00;5111184;28;20414;-81
2023/07/07 04:02:43;;;;;;;23.02;16.58;;;;;;;20.51;68.02;95036.63;5127266;27;20051;-82
2023/07/07 04:05:09;;;;;;;21.02;16.58;;;;;;;20.53;68.10;95036.13;5111609;28;20023;-82
2023/07/07 04:07:35;;;;;;;18.77;16.77;;;;;;;20.56;67.89;95043.50;5110266;28;20054;-81
2023/07/07 04:10:00;;;;;;;19.90;15.93;;;;;;;20.56;67.77;95035.13;5127407;27;20023;-82
2023/07/07 04:12:25;;;;;;;18.10;16.17;;;;;;;;;;5126004;27;20035;-82
2023/07/07 04:14:51;;;;;;;20.35;16.92;;;;;;;20.60;67.91;95044.03;5111178;28;20055;-82
2023/07/07 04:17:16;;;;;;;20.02;17.05;;;;;;;20.60;67.88;95046.84;5126025;27;20460;-81
2023/07/07 04:19:41;;;;;;;19.88;16.80;;;;;;;20.62;68.31;95047.09;5111635;28;20031;-82
2023/07/07 04:22:07;;;;;;;20.90;17.52;;;;;;;20.66;68.27;95040.00;5110338;28;20072;-81
2023/07/07 04:24:32;;;;;;;19.20;17.10;;;;;;;20.70;68.42;95048.13;5110328;28;20023;-81
2023/07/07 04:26:58;;;;;;;21.75;18.58;;;;;;;20.73;68.56;95033.19;5111078;28;20015;-81
2023/07/07 04:29:23;;;;;;;21.58;18.27;;;;;;;20.78;68.78;95035.25;5109631;28;20023;-81
2023/07/07 04:31:48;;;;;;;20.92;18.00;;;;;;;20.83;68.43;95028.91;5111175;28;20019;-81
2023/07/07 04:34:15;;;;;;;19.80;17.33;;;;;;;20.86;68.16;95035.50;5108915;28;20118;-81
2023/07/07 04:36:40;;;;;;;22.58;17.25;;;;;;;20.98;67.93;95034.28;5113018;28;20043;-81
2023/07/07 04:39:07;;;;;;;20.73;18.13;;;;;;;20.99;67.90;95043.44;5108129;28;20051;-81
2023/07/07 04:41:33;;;;;;;21.13;18.92;;;;;;;21.04;67.88;95051.81;5111020;28;20024;-82
2023/07/07 04:43:59;;;;;;;19.33;17.05;;;;;;;21.06;67.89;95054.13;5110588;27;20531;-81
2023/07/07 04:46:27;;;;;;;21.10;18.90;;;;;;;21.11;67.79;95051.38;5125334;27;20804;-80
2023/07/07 04:48:53;;;;;;;20.67;18.00;;;;;;;21.16;67.49;95063.81;5109216;28;20057;-82
2023/07/07 04:51:19;;;;;;;20.73;18.25;;;;;;;21.19;67.54;95057.97;5110961;28;20020;-82
2023/07/07 04:53:44;;;;;;;19.77;17.63;;;;;;;21.29;67.48;95060.56;5127831;27;20425;-81
2023/07/07 04:56:11;;;;;;;21.98;16.15;;;;;;;21.34;67.24;95069.00;5125735;27;20031;-81
2023/07/07 04:58:38;;;;;;;21.10;17.20;;;;;;;21.38;66.77;95063.91;5110023;28;20023;-81
2023/07/07 05:01:18;;;;;;;20.30;16.92;;;;;;;21.41;66.46;95070.53;5109791;28;20023;-81
2023/07/07 05:03:45;;;;;;;19.77;17.67;;;;;;;21.43;66.67;95067.97;5110222;28;20023;-81
2023/07/07 05:06:11;;;;;;;18.58;16.58;;;;;;;21.41;66.80;95065.69;5110166;28;20024;-80
2023/07/07 05:08:40;;;;;;;21.20;16.48;;;;;;;21.49;66.38;95068.75;5124940;27;20024;-81
2023/07/07 05:11:06;;;;;;;18.48;16.52;;;;;;;21.50;66.76;95069.50;5108602;28;20597;-81
2023/07/07 05:13:32;;;;;;;21.40;17.15;;;;;;;21.52;66.38;95067.00;5107289;28;20030;-79
2023/07/07 05:16:07;;;;;;;19.08;17.08;;;;;;;21.56;66.41;95059.09;5109994;28;20035;-81
2023/07/07 05:18:32;;;;;;;19.60;17.52;;;;;;;21.59;66.28;95060.91;5108516;28;20317;-81
2023/07/07 05:20:58;;;;;;;20.38;18.10;;;;;;;21.62;66.10;95060.66;5108347;28;20051;-80
2023/07/07 05:23:24;;;;;;;19.75;17.63;;;;;;;21.65;65.65;95059.63;5110737;28;20027;-81
2023/07/07 05:25:50;;;;;;;19.55;17.50;;;;;;;21.67;65.86;95068.25;5125177;27;20016;-80
2023/07/07 05:28:16;;;;;;;22.45;17.27;;;;;;;21.71;65.88;95062.44;5126193;27;20032;-80
2023/07/07 05:30:42;;;;;;;21.25;17.33;;;;;;;21.75;65.51;95062.94;5110105;28;20011;-80
2023/07/07 05:33:08;;;;;;;19.42;16.95;;;;;;;21.83;65.00;95068.78;5108737;28;20390;-80
2023/07/07 05:35:33;;;;;;;20.33;17.27;;;;;;;21.86;64.84;95065.75;5109475;28;20508;-80
2023/07/07 05:38:00;;;;;;;18.67;16.85;;;;;;;21.88;65.09;95066.00;5108164;28;20425;-80
2023/07/07 05:40:26;;;;;;;18.33;16.13;;;;;;;21.91;64.72;95067.78;5125833;27;20118;-81
2023/07/07 05:42:52;;;;;;;24.52;18.05;;;;;;;21.96;64.58;95071.84;5124541;27;20133;-79
2023/07/07 05:45:17;;;;;;;19.60;17.55;;;;;;;21.95;64.43;95076.69;5109430;28;20107;-80
2023/07/07 05:47:42;;;;;;;23.45;17.92;;;;;;;21.94;64.25;95069.56;5108371;28;20019;-80
2023/07/07 05:50:08;;;;;;;23.65;18.20;;;;;;;21.94;64.63;95080.75;5109643;28;20019;-80
2023/07/07 05:52:34;;;;;;;20.92;17.67;;;;;;;21.95;64.29;95075.91;5123883;27;20016;-80
2023/07/07 05:55:02;;;;;;;19.83;17.25;;;;;;;21.94;64.29;95094.00;5108338;28;20055;-80
2023/07/07 05:57:31;;;;;;;19.48;17.17;;;;;;;21.96;64.24;95091.44;5109314;28;20023;-80
2023/07/07 05:59:56;;;;;;;18.60;16.65;;;;;;;21.96;64.30;95091.44;5107215;28;20032;-81
2023/07/07 06:02:22;;;;;;;19.65;17.58;;;;;;;21.99;64.23;95085.59;5108357;28;20121;-78
2023/07/07 06:04:47;;;;;;;19.85;17.80;;;;;;;22.00;64.01;95089.16;5108220;28;20027;-81
2023/07/07 06:07:12;;;;;;;22.65;18.85;;;;;;;21.97;63.99;95088.16;5109257;28;20459;-80
2023/07/07 06:09:38;;;;;;;22.83;18.77;;;;;;;22.00;64.04;95084.31;5107752;28;20320;-80
2023/07/07 06:12:04;;;;;;;24.10;17.35;;;;;;;22.02;64.24;95086.59;5108957;28;20524;-80
2023/07/07 06:14:30;;;;;;;21.08;18.15;;;;;;;22.07;64.15;95087.88;5105714;28;20086;-81
2023/07/07 06:16:55;;;;;;;19.35;17.35;;;;;;;22.14;64.01;95095.81;5122788;27;20084;-81
2023/07/07 06:19:21;;;;;;;19.52;17.20;;;;;;;22.21;63.76;95098.84;5123214;27;20077;-81
2023/07/07 06:21:46;;;;;;;19.42;17.23;;;;;;;22.25;63.41;95090.19;5108035;28;20027;-81
2023/07/07 06:24:12;;;;;;;18.77;16.77;;;;;;;22.29;63.57;95092.72;5108223;28;20023;-81
2023/07/07 06:26:37;;;;;;;19.00;17.00;;;;;;;22.35;63.13;95085.09;5106454;28;20397;-81
2023/07/07 06:29:02;;;;;;;20.67;16.33;;;;;;;22.41;63.14;95097.81;5108247;28;20016;-81
2023/07/07 06:31:28;;;;;;;19.58;16.17;;;;;;;22.40;63.06;95099.09;5106883;28;20023;-81
2023/07/07 06:33:54;;;;;;;19.27;16.60;;;;;;;22.44;63.11;95090.44;5107465;28;20476;-81
2023/07/07 06:36:19;;;;;;;17.83;15.98;;;;;;;22.43;62.38;95092.47;5122396;27;20035;-81
2023/07/07 06:38:45;;;;;;;17.63;15.73;;;;;;;22.51;62.94;95093.47;5106467;28;20028;-81
2023/07/07 06:41:11;;;;;;;20.38;16.00;;;;;;;22.57;62.79;95104.66;5107395;28;20027;-81
2023/07/07 06:43:37;;;;;;;18.02;15.93;;;;;;;22.73;62.42;95097.50;5104555;28;20044;-81
2023/07/07 06:46:02;;;;;;;18.48;15.93;;;;;;;22.83;61.49;95109.97;5107173;28;20441;-81
2023/07/07 06:48:28;;;;;;;18.23;15.10;;;;;;;22.93;60.96;95111.22;5121765;27;20024;-81
2023/07/07 06:50:53;;;;;;;17.77;15.52;;;;;;;22.92;61.28;95097.72;5107433;28;20038;-81
2023/07/07 06:53:18;;;;;;;17.35;14.95;;;;;;;23.00;60.58;95099.50;5106009;28;20024;-80
2023/07/07 06:55:44;;;;;;;18.40;14.38;;;;;;;23.03;60.59;95106.09;5106771;28;20030;-81
2023/07/07 06:58:14;;;;;;;18.23;15.05;;;;;;;23.07;60.05;95105.84;5105171;28;20055;-81
2023/07/07 07:00:40;;;;;;;19.77;14.50;;;;;;;23.13;60.05;95112.19;5106201;28;20080;-81
2023/07/07 07:03:05;;;;;;;20.98;15.05;;;;;;;23.13;59.89;95109.38;5122711;27;20055;-81
2023/07/07 07:05:31;;;;;;;15.85;13.90;;;;;;;23.16;59.09;95114.72;5121209;28;20063;-81
2023/07/07 07:07:56;;;;;;;17.30;15.32;;;;;;;23.16;59.70;95113.94;5105735;28;20019;-81
2023/07/07 07:10:22;;;;;;;24.60;16.45;;;;;;;23.15;59.51;95120.84;5105524;28;20469;-80
2023/07/07 07:12:48;;;;;;;22.33;16.75;;;;;;;23.15;59.73;95118.03;5107298;28;20024;-81
2023/07/07 07:15:13;;;;;;;21.58;17.75;;;;;;;23.15;59.96;95129.25;5105882;28;20497;-81
2023/07/07 07:17:39;;;;;;;22.52;18.80;;;;;;;23.20;59.87;95128.47;5122721;28;20027;-81
2023/07/07 07:20:07;;;;;;;28.70;21.83;;;;;;;23.21;59.99;95121.56;5106965;28;20082;-81
2023/07/07 07:22:32;;;;;;;24.35;18.58;;;;;;;23.24;59.98;95126.16;5121619;28;20031;-81
2023/07/07 07:24:58;;;;;;;27.27;20.45;;;;;;;23.30;59.68;95133.28;5123059;27;20087;-81
2023/07/07 07:27:23;;;;;;;31.50;22.63;;;;;;;23.30;59.77;95133.28;5109998;28;20020;-82
2023/07/07 07:29:51;;;;;;;35.53;23.33;;;;;;;23.35;60.01;95140.16;5111379;28;20035;-81
2023/07/07 07:32:17;;;;;;;21.50;18.08;;;;;;;23.42;59.74;95141.63;5109668;28;20027;-82
2023/07/07 07:34:43;;;;;;;18.05;15.43;;;;;;;23.41;59.01;95131.69;5109413;28;20088;-82
2023/07/07 07:37:08;;;;;;;18.75;15.55;;;;;;;23.43;59.18;95138.31;5108951;28;20019;-82
2023/07/07 07:39:34;;;;;;;17.70;15.43;;;;;;;23.43;59.32;95138.31;5125727;27;20065;-82
2023/07/07 07:42:00;;;;;;;17.40;15.05;;;;;;;23.49;59.17;95138.28;5109447;28;20374;-82
2023/07/07 07:44:25;;;;;;;18.65;15.43;;;;;;;23.53;59.48;95138.78;5108865;28;20020;-82
2023/07/07 07:46:53;;;;;;;19.67;15.20;;;;;;;23.63;59.54;95139.25;5126449;27;20020;-82
2023/07/07 07:49:19;;;;;;;16.65;14.93;;;;;;;23.76;59.46;95134.59;5107547;28;20072;-82
2023/07/07 07:51:44;;;;;;;16.92;13.90;;;;;;;23.89;59.01;95145.22;5125943;27;20095;-82
2023/07/07 07:54:11;;;;;;;15.55;13.25;;;;;;;24.02;57.37;95142.59;5124824;27;20019;-82
2023/07/07 07:56:38;;;;;;;15.98;13.48;;;;;;;24.05;57.20;95152.78;5109535;28;20023;-82
2023/07/07 07:59:05;;;;;;;14.38;12.90;;;;;;;24.14;57.51;95143.25;5108551;28;20065;-81
2023/07/07 08:01:31;;;;;;;16.75;13.65;;;;;;;24.27;56.10;95151.09;5107424;28;20333;-81
2023/07/07 08:03:56;;;;;;;21.00;12.73;;;;;;;24.32;55.87;95144.69;5110368;28;20099;-81
2023/07/07 08:06:22;;;;;;;15.77;12.68;;;;;;;24.40;55.78;95144.91;5109095;28;20031;-81
2023/07/07 08:08:47;;;;;;;19.17;12.63;;;;;;;24.55;55.80;95148.84;5127097;27;20073;-81
2023/07/07 08:11:16;;;;;;;13.85;11.68;;;;;;;24.73;54.11;95149.47;5124823;27;20032;-81
2023/07/07 08:13:41;;;;;;;16.25;11.90;;;;;;;24.84;54.23;95146.53;5110290;28;20032;-81
2023/07/07 08:16:10;;;;;;;14.25;10.90;;;;;;;24.85;53.74;95148.81;5109998;28;20030;-81
2023/07/07 08:18:35;;;;;;;16.60;11.80;;;;;;;24.89;53.59;95148.53;5108745;28;20481;-81
2023/07/07 08:21:01;;;;;;;17.80;12.18;;;;;;;24.94;54.38;95158.94;5109870;28;20119;-81
2023/07/07 08:23:26;;;;;;;15.55;12.05;;;;;;;24.97;54.24;95159.94;5129552;27;20053;-82
2023/07/07 08:25:52;;;;;;;17.95;12.15;;;;;;;24.94;54.55;95169.44;5131151;27;20015;-81
2023/07/07 08:28:18;;;;;;;15.13;12.77;;;;;;;24.98;54.30;95162.22;5112991;27;20019;-82
2023/07/07 08:30:43;;;;;;;16.58;13.40;;;;;;;25.01;54.21;95164.00;5126254;27;20049;-81
2023/07/07 08:33:09;;;;;;;22.17;12.73;;;;;;;25.09;54.50;95162.16;5110003;28;20028;-81
2023/07/07 08:35:34;;;;;;;14.30;12.60;;;;;;;25.16;54.55;95158.75;5109351;28;20028;-81
2023/07/07 08:38:00;;;;;;;15.48;12.80;;;;;;;25.32;53.05;95162.66;5109068;28;20132;-81
2023/07/07 08:40:28;;;;;;;17.45;12.20;;;;;;;25.37;52.33;95158.25;5123782;27;20478;-81
2023/07/07 08:42:53;;;;;;;13.75;12.25;;;;;;;25.54;52.76;95153.19;5109730;28;20525;-81
2023/07/07 08:45:21;;;;;;;15.95;12.40;;;;;;;25.71;51.26;95158.59;5106453;28;20024;-80
2023/07/07 08:47:56;;;;;;;17.73;11.70;;;;;;;25.83;51.19;95157.19;5125132;27;20032;-80
2023/07/07 08:50:30;;;;;;;15.07;12.23;;;;;;;25.86;51.91;95149.72;5124446;27;20020;-81
2023/07/07 08:53:17;;;;;;;20.98;14.57;;;;;;;25.95;52.16;95144.47;5108947;28;20027;-81
2023/07/07 08:56:27;;;;;;;17.92;14.30;;;;;;;26.02;51.46;95151.53;5125318;27;20035;-80
2023/07/07 08:59:26;;;;;;;16.45;12.07;;;;;;;26.09;50.76;95141.69;5108161;28;20198;-80
2023/07/07 09:02:08;;;;;;;16.05;12.35;;;;;;;26.17;50.15;95148.25;5109923;28;20030;-81
2023/07/07 09:04:54;;;;;;;17.50;13.13;;;;;;;26.28;50.61;95133.97;5109930;28;20031;-80
2023/07/07 09:07:46;;;;;;;15.60;13.20;;;;;;;26.40;50.38;95134.56;5108393;28;20031;-80
2023/07/07 09:10:38;;;;;;;17.60;11.68;;;;;;;26.43;48.74;95127.88;5099544;27;20039;-82
2023/07/07 09:13:12;;;;;;;19.65;11.43;;;;;;;26.48;48.63;95132.66;5125229;27;20130;-81
2023/07/07 09:15:40;;;;;;;12.82;11.52;;;;;;;26.58;48.88;95122.50;5107220;28;20044;-82
2023/07/07 09:18:12;;;;;;;13.00;10.90;;;;;;;26.71;47.72;95121.75;5125245;27;20037;-81
2023/07/07 09:20:38;;;;;;;17.60;12.18;;;;;;;26.90;47.87;95124.50;5108949;28;20031;-81
2023/07/07 09:23:08;;;;;;;13.68;10.75;;;;;;;27.06;47.71;95126.25;5124807;27;20024;-81
2023/07/07 09:25:41;;;;;;;11.90;10.13;;;;;;;27.24;47.02;95124.63;5124578;27;20027;-81
2023/07/07 09:28:08;;;;;;;;;;;;;;;27.37;46.81;95115.41;5124050;27;20115;-81
2023/07/07 09:30:42;;;;;;;11.43;10.00;;;;;;;27.54;46.48;95113.00;5108148;28;19912;-80
2023/07/07 09:33:11;;;;;;;12.98;10.68;;;;;;;27.66;46.01;95117.09;5123544;27;20054;-81
2023/07/07 09:35:42;;;;;;;14.40;11.02;;;;;;;27.83;45.03;95111.09;5124021;27;20028;-82
2023/07/07 09:38:21;;;;;;;12.02;10.30;;;;;;;28.00;45.04;95119.97;5107249;28;20485;-82
2023/07/07 09:40:59;;;;;;;11.30;10.20;;;;;;;28.18;44.33;95111.84;5123291;27;20023;-82
2023/07/07 09:43:43;;;;;;;11.95;10.57;;;;;;;28.37;44.88;95111.66;5123845;27;20440;-81
2023/07/07 09:46:26;;;;;;;11.30;10.02;;;;;;;28.61;43.78;95110.56;5106593;28;20039;-79
2023/07/07 09:49:02;;;;;;;12.32;9.82;;;;;;;28.75;42.78;95124.06;5122926;27;20096;-82
2023/07/07 09:51:42;;;;;;;11.07;9.65;;;;;;;28.88;42.88;95116.81;5123461;27;20035;-84
2023/07/07 09:54:13;;;;;;;10.48;9.00;;;;;;;28.98;41.79;95104.47;5109801;28;20035;-84
2023/07/07 09:56:49;;;;;;;10.73;9.63;;;;;;;29.14;42.21;95122.31;5106900;28;20058;-75
2023/07/07 09:59:19;;;;;;;11.68;9.93;;;;;;;29.21;42.49;95110.25;5122412;27;20102;-75
2023/07/07 10:01:47;;;;;;;12.05;9.90;;;;;;;29.31;41.84;95111.28;5123600;27;20104;-77
2023/07/07 10:04:14;;;;;;;11.23;9.57;;;;;;;29.39;40.82;95116.22;5122953;27;20023;-76
2023/07/07 10:06:47;;;;;;;13.73;10.30;;;;;;;29.45;41.21;95108.31;5106656;28;20111;-77
2023/07/07 10:09:13;;;;;;;12.00;10.25;;;;;;;29.63;41.87;95113.69;5090442;28;20122;-76
2023/07/07 10:11:40;;;;;;;12.18;8.95;;;;;;;29.81;40.26;95108.28;5088799;28;20114;-76
2023/07/07 10:14:07;;;;;;;12.23;9.38;;;;;;;29.95;40.04;95108.91;5089376;28;20077;-77
2023/07/07 10:16:32;;;;;;;11.82;9.10;;;;;;;30.06;39.07;95108.56;5105560;28;20023;-77
2023/07/07 10:19:07;;;;;;;9.60;8.63;;;;;;;30.10;39.27;95103.28;5107795;28;20028;-76
2023/07/07 10:21:33;;;;;;;11.15;8.95;;;;;;;30.23;39.46;95108.81;5122891;27;20031;-76
2023/07/07 10:24:00;;;;;;;14.82;9.90;;;;;;;30.22;38.40;95107.28;5123030;27;20081;-76
2023/07/07 10:26:25;;;;;;;10.10;9.10;;;;;;;30.23;38.29;95096.72;5105688;28;20077;-76
2023/07/07 10:28:52;;;;;;;10.68;8.85;;;;;;;30.24;39.04;95092.56;5105148;28;20035;-76
2023/07/07 10:31:18;;;;;;;10.23;9.20;;;;;;;30.32;39.12;95082.75;5106226;28;20024;-75
2023/07/07 10:33:43;;;;;;;9.38;8.30;;;;;;;30.29;38.49;95088.81;5106431;28;20024;-76
2023/07/07 10:36:24;;;;;;;9.63;8.63;;;;;;;30.20;39.57;95095.00;5107041;28;20382;-76
2023/07/07 10:38:49;;;;;;;9.73;8.73;;;;;;;30.09;38.50;95093.25;5104903;28;20019;-75
2023/07/07 10:41:14;;;;;;;10.85;9.18;;;;;;;30.09;38.84;95096.84;5104875;28;20518;-75
2023/07/07 10:43:40;;;;;;;12.40;10.13;;;;;;;30.10;39.16;95092.69;5104953;28;20433;-75
2023/07/07 10:46:11;;;;;;;10.55;8.55;;;;;;;30.23;40.13;95091.06;5122333;27;20401;-76
2023/07/07 10:48:40;;;;;;;11.43;8.90;;;;;;;30.25;38.77;95083.50;5107401;28;20019;-76
2023/07/07 10:51:14;;;;;;;11.20;8.88;;;;;;;30.37;38.63;95075.38;5104881;28;20028;-76
2023/07/07 10:54:21;;;;;;;10.50;9.50;;;;;;;30.34;38.48;95071.59;5106910;28;20043;-76
2023/07/07 10:56:49;;;;;;;10.30;8.95;;;;;;;30.31;38.54;95069.13;5104750;28;20043;-76
2023/07/07 10:59:54;;;;;;;10.65;8.95;;;;;;;30.34;38.45;95060.25;5121845;27;20110;-76
2023/07/07 11:02:52;;;;;;;11.23;10.00;;;;;;;30.18;38.63;95075.00;5122528;27;20057;-77
2023/07/07 11:05:28;;;;;;;11.32;8.63;;;;;;;29.93;38.93;95075.47;5106898;28;20063;-75
2023/07/07 11:08:12;;;;;;;12.13;9.20;;;;;;;30.09;39.23;95071.34;5122674;28;20031;-76
2023/07/07 11:11:05;;;;;;;10.85;9.20;;;;;;;30.08;39.29;95067.00;5106839;28;20494;-76
2023/07/07 11:14:00;;;;;;;11.30;8.82;;;;;;;30.04;39.35;95077.94;5104676;28;20084;-77
2023/07/07 11:16:53;;;;;;;14.70;10.48;;;;;;;29.95;39.06;95081.34;5122091;28;20497;-76
2023/07/07 11:19:44;;;;;;;;;;;;;;;30.07;39.49;95076.06;5107460;28;20110;-76
2023/07/07 11:22:34;;;;;;;11.23;9.20;;;;;;;30.13;39.83;95076.69;5104547;28;19911;-76
2023/07/07 11:25:12;;;;;;;11.75;9.35;;;;;;;30.32;39.25;95074.22;5105010;28;20046;-76
2023/07/07 11:27:56;;;;;;;13.77;9.50;;;;;;;30.53;38.94;95070.47;5106808;28;20107;-76
2023/07/07 11:30:35;;;;;;;12.32;8.90;;;;;;;30.48;38.69;95068.59;5105605;28;20447;-77